sensor_id;sensor_type;location;lat;lon;timestamp;P1;durP1;ratioP1;P2;durP2;ratioP2
25299;SDS011;13241;51.208;4.432;2022-11-13T00:02:34;18.13;;;9.98;;
25299;SDS011;13241;51.208;4.432;2022-11-13T00:05:20;17.92;;;8.55;;
25299;SDS011;13241;51.208;4.432;2022-11-13T00:08:06;19.95;;;9.40;;
25299;SDS011;13241;51.208;4.432;2022-11-13T00:10:58;18.20;;;9.43;;
25299;SDS011;13241;51.208;4.432;2022-11-13T00:13:44;27.05;;;10.93;;
25299;SDS011;13241;51.208;4.432;2022-11-13T00:16:30;21.42;;;10.07;;
25299;SDS011;13241;51.208;4.432;2022-11-13T00:19:16;23.30;;;9.60;;
25299;SDS011;13241;51.208;4.432;2022-11-13T00:22:01;17.35;;;9.90;;
25299;SDS011;13241;51.208;4.432;2022-11-13T00:24:46;20.75;;;10.07;;
25299;SDS011;13241;51.208;4.432;2022-11-13T00:27:32;19.45;;;9.68;;
25299;SDS011;13241;51.208;4.432;2022-11-13T00:30:17;20.17;;;10.43;;
25299;SDS011;13241;51.208;4.432;2022-11-13T00:33:03;23.63;;;10.68;;
25299;SDS011;13241;51.208;4.432;2022-11-13T00:35:48;20.52;;;10.43;;
25299;SDS011;13241;51.208;4.432;2022-11-13T00:38:34;21.88;;;10.32;;
25299;SDS011;13241;51.208;4.432;2022-11-13T00:41:21;25.05;;;10.13;;
25299;SDS011;13241;51.208;4.432;2022-11-13T00:44:07;19.15;;;8.80;;
25299;SDS011;13241;51.208;4.432;2022-11-13T00:46:53;18.95;;;9.95;;
25299;SDS011;13241;51.208;4.432;2022-11-13T00:49:39;21.27;;;9.20;;
25299;SDS011;13241;51.208;4.432;2022-11-13T00:52:24;14.85;;;8.20;;
25299;SDS011;13241;51.208;4.432;2022-11-13T00:55:09;15.95;;;9.10;;
25299;SDS011;13241;51.208;4.432;2022-11-13T00:57:55;16.00;;;9.90;;
25299;SDS011;13241;51.208;4.432;2022-11-13T01:00:41;15.80;;;8.65;;
25299;SDS011;13241;51.208;4.432;2022-11-13T01:03:27;19.25;;;8.88;;
25299;SDS011;13241;51.208;4.432;2022-11-13T01:06:14;19.15;;;9.52;;
25299;SDS011;13241;51.208;4.432;2022-11-13T01:09:05;15.70;;;8.75;;
25299;SDS011;13241;51.208;4.432;2022-11-13T01:11:50;19.88;;;10.20;;
25299;SDS011;13241;51.208;4.432;2022-11-13T01:14:35;15.00;;;9.25;;
25299;SDS011;13241;51.208;4.432;2022-11-13T01:17:21;15.95;;;8.07;;
25299;SDS011;13241;51.208;4.432;2022-11-13T01:20:07;15.02;;;8.70;;
25299;SDS011;13241;51.208;4.432;2022-11-13T01:22:52;19.10;;;8.77;;
25299;SDS011;13241;51.208;4.432;2022-11-13T01:25:38;20.60;;;8.45;;
25299;SDS011;13241;51.208;4.432;2022-11-13T01:28:23;20.27;;;9.15;;
25299;SDS011;13241;51.208;4.432;2022-11-13T01:31:11;15.32;;;8.45;;
25299;SDS011;13241;51.208;4.432;2022-11-13T01:34:00;17.23;;;9.27;;
25299;SDS011;13241;51.208;4.432;2022-11-13T01:36:45;19.50;;;9.00;;
25299;SDS011;13241;51.208;4.432;2022-11-13T01:39:32;19.13;;;9.50;;
25299;SDS011;13241;51.208;4.432;2022-11-13T01:42:17;17.95;;;8.60;;
25299;SDS011;13241;51.208;4.432;2022-11-13T01:45:47;19.30;;;8.75;;
25299;SDS011;13241;51.208;4.432;2022-11-13T01:51:25;18.08;;;8.77;;
25299;SDS011;13241;51.208;4.432;2022-11-13T01:54:27;15.65;;;8.50;;
25299;SDS011;13241;51.208;4.432;2022-11-13T01:57:16;14.07;;;8.30;;
25299;SDS011;13241;51.208;4.432;2022-11-13T02:00:04;12.65;;;7.25;;
25299;SDS011;13241;51.208;4.432;2022-11-13T02:02:52;11.30;;;7.80;;
25299;SDS011;13241;51.208;4.432;2022-11-13T02:05:37;19.42;;;9.43;;
25299;SDS011;13241;51.208;4.432;2022-11-13T02:08:23;21.67;;;8.85;;
25299;SDS011;13241;51.208;4.432;2022-11-13T02:11:10;16.90;;;8.07;;
25299;SDS011;13241;51.208;4.432;2022-11-13T02:13:56;12.77;;;8.20;;
25299;SDS011;13241;51.208;4.432;2022-11-13T02:16:43;12.00;;;7.45;;
25299;SDS011;13241;51.208;4.432;2022-11-13T02:19:33;16.40;;;7.70;;
25299;SDS011;13241;51.208;4.432;2022-11-13T02:25:12;12.60;;;7.93;;
25299;SDS011;13241;51.208;4.432;2022-11-13T02:27:58;12.88;;;7.78;;
25299;SDS011;13241;51.208;4.432;2022-11-13T02:30:43;15.05;;;8.20;;
25299;SDS011;13241;51.208;4.432;2022-11-13T02:33:29;15.68;;;9.52;;
25299;SDS011;13241;51.208;4.432;2022-11-13T02:36:16;17.27;;;9.73;;
25299;SDS011;13241;51.208;4.432;2022-11-13T02:39:05;15.15;;;8.60;;
25299;SDS011;13241;51.208;4.432;2022-11-13T02:41:52;13.55;;;8.02;;
25299;SDS011;13241;51.208;4.432;2022-11-13T02:44:38;15.18;;;8.93;;
25299;SDS011;13241;51.208;4.432;2022-11-13T02:47:23;16.13;;;8.32;;
25299;SDS011;13241;51.208;4.432;2022-11-13T02:50:09;18.80;;;9.50;;
25299;SDS011;13241;51.208;4.432;2022-11-13T02:52:55;19.48;;;8.63;;
25299;SDS011;13241;51.208;4.432;2022-11-13T02:55:41;19.08;;;8.55;;
25299;SDS011;13241;51.208;4.432;2022-11-13T02:58:26;15.40;;;8.07;;
25299;SDS011;13241;51.208;4.432;2022-11-13T03:01:12;14.80;;;8.18;;
25299;SDS011;13241;51.208;4.432;2022-11-13T03:03:58;16.15;;;7.70;;
25299;SDS011;13241;51.208;4.432;2022-11-13T03:06:44;13.90;;;8.70;;
25299;SDS011;13241;51.208;4.432;2022-11-13T03:09:29;16.42;;;8.10;;
25299;SDS011;13241;51.208;4.432;2022-11-13T03:12:15;13.23;;;8.07;;
25299;SDS011;13241;51.208;4.432;2022-11-13T03:15:01;17.60;;;8.98;;
25299;SDS011;13241;51.208;4.432;2022-11-13T03:17:46;20.13;;;7.90;;
25299;SDS011;13241;51.208;4.432;2022-11-13T03:20:32;14.50;;;8.07;;
25299;SDS011;13241;51.208;4.432;2022-11-13T03:23:20;17.73;;;8.90;;
25299;SDS011;13241;51.208;4.432;2022-11-13T03:26:07;17.83;;;8.88;;
25299;SDS011;13241;51.208;4.432;2022-11-13T03:28:55;15.20;;;7.53;;
25299;SDS011;13241;51.208;4.432;2022-11-13T03:31:40;15.57;;;9.50;;
25299;SDS011;13241;51.208;4.432;2022-11-13T03:34:26;17.52;;;8.40;;
25299;SDS011;13241;51.208;4.432;2022-11-13T03:37:11;13.07;;;7.47;;
25299;SDS011;13241;51.208;4.432;2022-11-13T03:39:57;17.25;;;8.85;;
25299;SDS011;13241;51.208;4.432;2022-11-13T03:42:42;17.58;;;8.70;;
25299;SDS011;13241;51.208;4.432;2022-11-13T03:45:28;12.65;;;7.85;;
25299;SDS011;13241;51.208;4.432;2022-11-13T03:48:14;11.70;;;7.50;;
25299;SDS011;13241;51.208;4.432;2022-11-13T03:51:00;17.88;;;7.50;;
25299;SDS011;13241;51.208;4.432;2022-11-13T03:53:46;21.92;;;8.75;;
25299;SDS011;13241;51.208;4.432;2022-11-13T03:56:32;14.02;;;7.90;;
25299;SDS011;13241;51.208;4.432;2022-11-13T03:59:17;12.85;;;7.70;;
25299;SDS011;13241;51.208;4.432;2022-11-13T04:02:02;12.13;;;7.15;;
25299;SDS011;13241;51.208;4.432;2022-11-13T04:04:48;12.85;;;8.32;;
25299;SDS011;13241;51.208;4.432;2022-11-13T04:07:34;13.30;;;7.88;;
25299;SDS011;13241;51.208;4.432;2022-11-13T04:10:19;18.45;;;8.40;;
25299;SDS011;13241;51.208;4.432;2022-11-13T04:13:05;26.45;;;8.43;;
25299;SDS011;13241;51.208;4.432;2022-11-13T04:15:50;17.10;;;8.82;;
25299;SDS011;13241;51.208;4.432;2022-11-13T04:18:36;17.27;;;10.05;;
25299;SDS011;13241;51.208;4.432;2022-11-13T04:21:21;19.80;;;8.75;;
25299;SDS011;13241;51.208;4.432;2022-11-13T04:24:07;12.73;;;8.50;;
25299;SDS011;13241;51.208;4.432;2022-11-13T04:26:52;11.40;;;7.68;;
25299;SDS011;13241;51.208;4.432;2022-11-13T04:29:38;13.68;;;7.18;;
25299;SDS011;13241;51.208;4.432;2022-11-13T04:32:23;10.27;;;6.57;;
25299;SDS011;13241;51.208;4.432;2022-11-13T04:35:09;18.08;;;7.97;;
25299;SDS011;13241;51.208;4.432;2022-11-13T04:37:55;16.20;;;8.48;;
25299;SDS011;13241;51.208;4.432;2022-11-13T04:40:40;16.50;;;7.95;;
25299;SDS011;13241;51.208;4.432;2022-11-13T04:43:26;19.25;;;8.20;;
25299;SDS011;13241;51.208;4.432;2022-11-13T04:46:11;11.25;;;7.18;;
25299;SDS011;13241;51.208;4.432;2022-11-13T04:48:57;18.95;;;9.13;;
25299;SDS011;13241;51.208;4.432;2022-11-13T04:51:42;16.17;;;8.27;;
25299;SDS011;13241;51.208;4.432;2022-11-13T04:54:30;13.88;;;7.60;;
25299;SDS011;13241;51.208;4.432;2022-11-13T04:57:15;11.75;;;7.18;;
25299;SDS011;13241;51.208;4.432;2022-11-13T05:00:02;14.02;;;8.13;;
25299;SDS011;13241;51.208;4.432;2022-11-13T05:02:53;13.15;;;8.07;;
25299;SDS011;13241;51.208;4.432;2022-11-13T05:05:40;15.30;;;7.22;;
25299;SDS011;13241;51.208;4.432;2022-11-13T05:08:25;13.00;;;7.95;;
25299;SDS011;13241;51.208;4.432;2022-11-13T05:11:11;13.27;;;8.05;;
25299;SDS011;13241;51.208;4.432;2022-11-13T05:13:57;14.90;;;8.13;;
25299;SDS011;13241;51.208;4.432;2022-11-13T05:16:47;18.92;;;8.93;;
25299;SDS011;13241;51.208;4.432;2022-11-13T05:19:34;14.48;;;7.50;;
25299;SDS011;13241;51.208;4.432;2022-11-13T05:22:19;13.23;;;7.47;;
25299;SDS011;13241;51.208;4.432;2022-11-13T05:25:05;14.65;;;7.32;;
25299;SDS011;13241;51.208;4.432;2022-11-13T05:27:50;12.73;;;8.18;;
25299;SDS011;13241;51.208;4.432;2022-11-13T05:30:36;14.68;;;7.63;;
25299;SDS011;13241;51.208;4.432;2022-11-13T05:33:22;14.85;;;6.97;;
25299;SDS011;13241;51.208;4.432;2022-11-13T05:36:11;16.58;;;8.00;;
25299;SDS011;13241;51.208;4.432;2022-11-13T05:38:58;11.65;;;6.95;;
25299;SDS011;13241;51.208;4.432;2022-11-13T05:41:44;17.88;;;8.35;;
25299;SDS011;13241;51.208;4.432;2022-11-13T05:44:29;13.70;;;8.32;;
25299;SDS011;13241;51.208;4.432;2022-11-13T05:47:15;14.30;;;7.40;;
25299;SDS011;13241;51.208;4.432;2022-11-13T05:50:00;13.15;;;7.60;;
25299;SDS011;13241;51.208;4.432;2022-11-13T05:52:46;11.32;;;7.38;;
25299;SDS011;13241;51.208;4.432;2022-11-13T05:55:32;16.95;;;7.88;;
25299;SDS011;13241;51.208;4.432;2022-11-13T05:58:17;15.40;;;8.35;;
25299;SDS011;13241;51.208;4.432;2022-11-13T06:01:03;14.23;;;7.82;;
25299;SDS011;13241;51.208;4.432;2022-11-13T06:03:55;11.02;;;7.38;;
25299;SDS011;13241;51.208;4.432;2022-11-13T06:06:41;18.10;;;7.88;;
25299;SDS011;13241;51.208;4.432;2022-11-13T06:09:27;16.40;;;8.60;;
25299;SDS011;13241;51.208;4.432;2022-11-13T06:12:12;10.55;;;7.47;;
25299;SDS011;13241;51.208;4.432;2022-11-13T06:14:58;17.48;;;7.32;;
25299;SDS011;13241;51.208;4.432;2022-11-13T06:17:46;12.43;;;6.95;;
25299;SDS011;13241;51.208;4.432;2022-11-13T06:20:35;13.15;;;8.32;;
25299;SDS011;13241;51.208;4.432;2022-11-13T06:23:21;16.05;;;8.05;;
25299;SDS011;13241;51.208;4.432;2022-11-13T06:26:08;14.02;;;7.75;;
25299;SDS011;13241;51.208;4.432;2022-11-13T06:28:58;12.20;;;7.20;;
25299;SDS011;13241;51.208;4.432;2022-11-13T06:31:44;16.08;;;8.43;;
25299;SDS011;13241;51.208;4.432;2022-11-13T06:34:30;17.50;;;8.85;;
25299;SDS011;13241;51.208;4.432;2022-11-13T06:37:15;14.98;;;7.85;;
25299;SDS011;13241;51.208;4.432;2022-11-13T06:40:01;13.63;;;7.20;;
25299;SDS011;13241;51.208;4.432;2022-11-13T06:42:46;14.98;;;8.02;;
25299;SDS011;13241;51.208;4.432;2022-11-13T06:45:32;20.17;;;8.55;;
25299;SDS011;13241;51.208;4.432;2022-11-13T06:48:18;15.98;;;7.43;;
25299;SDS011;13241;51.208;4.432;2022-11-13T06:51:04;14.98;;;9.15;;
25299;SDS011;13241;51.208;4.432;2022-11-13T06:53:51;14.82;;;9.02;;
25299;SDS011;13241;51.208;4.432;2022-11-13T06:56:37;19.25;;;9.48;;
25299;SDS011;13241;51.208;4.432;2022-11-13T06:59:27;14.25;;;7.57;;
25299;SDS011;13241;51.208;4.432;2022-11-13T07:02:12;15.10;;;8.65;;
25299;SDS011;13241;51.208;4.432;2022-11-13T07:04:58;14.48;;;8.48;;
25299;SDS011;13241;51.208;4.432;2022-11-13T07:07:43;19.27;;;7.85;;
25299;SDS011;13241;51.208;4.432;2022-11-13T07:10:29;21.13;;;8.15;;
25299;SDS011;13241;51.208;4.432;2022-11-13T07:13:14;19.05;;;8.90;;
25299;SDS011;13241;51.208;4.432;2022-11-13T07:16:00;13.77;;;8.02;;
25299;SDS011;13241;51.208;4.432;2022-11-13T07:19:00;16.27;;;8.27;;
25299;SDS011;13241;51.208;4.432;2022-11-13T07:21:46;19.80;;;8.10;;
25299;SDS011;13241;51.208;4.432;2022-11-13T07:24:32;15.25;;;6.50;;
25299;SDS011;13241;51.208;4.432;2022-11-13T07:27:17;16.65;;;6.82;;
25299;SDS011;13241;51.208;4.432;2022-11-13T07:30:03;12.80;;;6.72;;
25299;SDS011;13241;51.208;4.432;2022-11-13T07:32:49;13.38;;;7.55;;
25299;SDS011;13241;51.208;4.432;2022-11-13T07:35:34;13.38;;;6.15;;
25299;SDS011;13241;51.208;4.432;2022-11-13T07:38:20;13.05;;;7.13;;
25299;SDS011;13241;51.208;4.432;2022-11-13T07:41:06;12.98;;;7.45;;
25299;SDS011;13241;51.208;4.432;2022-11-13T07:43:51;10.98;;;6.35;;
25299;SDS011;13241;51.208;4.432;2022-11-13T07:46:37;13.00;;;7.47;;
25299;SDS011;13241;51.208;4.432;2022-11-13T07:49:22;9.30;;;5.95;;
25299;SDS011;13241;51.208;4.432;2022-11-13T07:52:08;11.45;;;7.20;;
25299;SDS011;13241;51.208;4.432;2022-11-13T07:54:53;12.77;;;6.53;;
25299;SDS011;13241;51.208;4.432;2022-11-13T07:57:39;11.45;;;7.10;;
25299;SDS011;13241;51.208;4.432;2022-11-13T08:00:24;12.73;;;6.95;;
25299;SDS011;13241;51.208;4.432;2022-11-13T08:03:12;15.30;;;7.50;;
25299;SDS011;13241;51.208;4.432;2022-11-13T08:06:02;9.95;;;6.32;;
25299;SDS011;13241;51.208;4.432;2022-11-13T08:08:49;11.10;;;6.85;;
25299;SDS011;13241;51.208;4.432;2022-11-13T08:11:34;9.65;;;6.60;;
25299;SDS011;13241;51.208;4.432;2022-11-13T08:14:20;11.07;;;6.72;;
25299;SDS011;13241;51.208;4.432;2022-11-13T08:17:05;11.55;;;7.00;;
25299;SDS011;13241;51.208;4.432;2022-11-13T08:19:51;11.82;;;6.95;;
25299;SDS011;13241;51.208;4.432;2022-11-13T08:22:36;13.77;;;7.38;;
25299;SDS011;13241;51.208;4.432;2022-11-13T08:25:22;11.27;;;6.85;;
25299;SDS011;13241;51.208;4.432;2022-11-13T08:28:07;9.75;;;6.38;;
25299;SDS011;13241;51.208;4.432;2022-11-13T08:30:57;9.27;;;5.80;;
25299;SDS011;13241;51.208;4.432;2022-11-13T08:33:43;12.43;;;6.95;;
25299;SDS011;13241;51.208;4.432;2022-11-13T08:36:28;12.35;;;6.80;;
25299;SDS011;13241;51.208;4.432;2022-11-13T08:39:15;14.32;;;6.90;;
25299;SDS011;13241;51.208;4.432;2022-11-13T08:42:01;13.95;;;7.47;;
25299;SDS011;13241;51.208;4.432;2022-11-13T08:44:47;11.57;;;6.70;;
25299;SDS011;13241;51.208;4.432;2022-11-13T08:47:33;13.70;;;7.28;;
25299;SDS011;13241;51.208;4.432;2022-11-13T08:50:18;10.98;;;7.28;;
25299;SDS011;13241;51.208;4.432;2022-11-13T08:53:04;13.27;;;7.32;;
25299;SDS011;13241;51.208;4.432;2022-11-13T08:55:50;17.15;;;6.97;;
25299;SDS011;13241;51.208;4.432;2022-11-13T08:58:35;14.05;;;7.78;;
25299;SDS011;13241;51.208;4.432;2022-11-13T09:01:21;9.57;;;6.28;;
25299;SDS011;13241;51.208;4.432;2022-11-13T09:04:07;14.30;;;7.15;;
25299;SDS011;13241;51.208;4.432;2022-11-13T09:06:53;13.65;;;7.53;;
25299;SDS011;13241;51.208;4.432;2022-11-13T09:09:38;14.25;;;7.63;;
25299;SDS011;13241;51.208;4.432;2022-11-13T09:12:24;12.07;;;7.15;;
25299;SDS011;13241;51.208;4.432;2022-11-13T09:15:10;15.38;;;6.75;;
25299;SDS011;13241;51.208;4.432;2022-11-13T09:17:59;11.35;;;6.03;;
25299;SDS011;13241;51.208;4.432;2022-11-13T09:20:46;11.20;;;7.35;;
25299;SDS011;13241;51.208;4.432;2022-11-13T09:23:32;12.07;;;8.13;;
25299;SDS011;13241;51.208;4.432;2022-11-13T09:26:18;11.98;;;7.10;;
25299;SDS011;13241;51.208;4.432;2022-11-13T09:29:03;10.50;;;6.53;;
25299;SDS011;13241;51.208;4.432;2022-11-13T09:31:49;10.98;;;6.47;;
25299;SDS011;13241;51.208;4.432;2022-11-13T09:34:34;11.07;;;6.72;;
25299;SDS011;13241;51.208;4.432;2022-11-13T09:37:20;14.48;;;6.97;;
25299;SDS011;13241;51.208;4.432;2022-11-13T09:40:06;17.33;;;6.53;;
25299;SDS011;13241;51.208;4.432;2022-11-13T09:42:54;14.63;;;6.93;;
25299;SDS011;13241;51.208;4.432;2022-11-13T09:45:40;14.50;;;6.57;;
25299;SDS011;13241;51.208;4.432;2022-11-13T09:48:29;13.52;;;7.32;;
25299;SDS011;13241;51.208;4.432;2022-11-13T09:51:24;12.23;;;6.75;;
25299;SDS011;13241;51.208;4.432;2022-11-13T09:54:14;14.60;;;6.78;;
25299;SDS011;13241;51.208;4.432;2022-11-13T10:00:26;11.55;;;6.55;;
25299;SDS011;13241;51.208;4.432;2022-11-13T10:06:35;11.90;;;7.05;;
25299;SDS011;13241;51.208;4.432;2022-11-13T10:09:51;9.95;;;6.93;;
25299;SDS011;13241;51.208;4.432;2022-11-13T10:12:39;11.52;;;5.60;;
25299;SDS011;13241;51.208;4.432;2022-11-13T10:15:25;12.32;;;6.50;;
25299;SDS011;13241;51.208;4.432;2022-11-13T10:18:12;9.93;;;6.15;;
25299;SDS011;13241;51.208;4.432;2022-11-13T10:24:16;10.63;;;7.00;;
25299;SDS011;13241;51.208;4.432;2022-11-13T10:27:09;7.57;;;5.07;;
25299;SDS011;13241;51.208;4.432;2022-11-13T10:29:56;9.00;;;5.78;;
25299;SDS011;13241;51.208;4.432;2022-11-13T10:32:42;9.88;;;5.68;;
25299;SDS011;13241;51.208;4.432;2022-11-13T10:35:36;8.45;;;5.65;;
25299;SDS011;13241;51.208;4.432;2022-11-13T10:38:37;6.93;;;5.35;;
25299;SDS011;13241;51.208;4.432;2022-11-13T10:41:29;10.98;;;5.88;;
25299;SDS011;13241;51.208;4.432;2022-11-13T10:47:17;9.75;;;5.85;;
25299;SDS011;13241;51.208;4.432;2022-11-13T10:50:24;11.80;;;5.95;;
25299;SDS011;13241;51.208;4.432;2022-11-13T10:53:15;10.13;;;6.45;;
25299;SDS011;13241;51.208;4.432;2022-11-13T10:56:10;9.25;;;5.30;;
25299;SDS011;13241;51.208;4.432;2022-11-13T11:01:47;11.43;;;6.75;;
25299;SDS011;13241;51.208;4.432;2022-11-13T11:04:33;10.80;;;6.10;;
25299;SDS011;13241;51.208;4.432;2022-11-13T11:07:21;12.27;;;6.10;;
25299;SDS011;13241;51.208;4.432;2022-11-13T11:13:47;10.95;;;5.85;;
25299;SDS011;13241;51.208;4.432;2022-11-13T11:16:32;8.88;;;5.75;;
25299;SDS011;13241;51.208;4.432;2022-11-13T11:19:18;13.80;;;5.88;;
25299;SDS011;13241;51.208;4.432;2022-11-13T11:22:13;7.75;;;5.38;;
25299;SDS011;13241;51.208;4.432;2022-11-13T11:25:13;13.48;;;5.13;;
25299;SDS011;13241;51.208;4.432;2022-11-13T11:28:24;9.75;;;5.20;;
25299;SDS011;13241;51.208;4.432;2022-11-13T11:37:20;10.18;;;5.88;;
25299;SDS011;13241;51.208;4.432;2022-11-13T11:45:58;9.95;;;5.30;;
25299;SDS011;13241;51.208;4.432;2022-11-13T11:48:44;14.32;;;5.97;;
25299;SDS011;13241;51.208;4.432;2022-11-13T11:51:43;9.88;;;5.40;;
25299;SDS011;13241;51.208;4.432;2022-11-13T11:54:52;10.27;;;6.40;;
25299;SDS011;13241;51.208;4.432;2022-11-13T12:01:04;7.05;;;4.38;;
25299;SDS011;13241;51.208;4.432;2022-11-13T12:04:12;11.00;;;5.70;;
25299;SDS011;13241;51.208;4.432;2022-11-13T12:10:24;10.68;;;5.65;;
25299;SDS011;13241;51.208;4.432;2022-11-13T12:13:31;9.07;;;6.10;;
25299;SDS011;13241;51.208;4.432;2022-11-13T12:16:54;14.82;;;5.93;;
25299;SDS011;13241;51.208;4.432;2022-11-13T12:29:48;8.90;;;4.43;;
25299;SDS011;13241;51.208;4.432;2022-11-13T12:36:04;6.53;;;3.92;;
25299;SDS011;13241;51.208;4.432;2022-11-13T12:41:55;6.32;;;4.03;;
25299;SDS011;13241;51.208;4.432;2022-11-13T12:44:50;6.97;;;3.85;;
25299;SDS011;13241;51.208;4.432;2022-11-13T12:47:44;6.20;;;4.15;;
25299;SDS011;13241;51.208;4.432;2022-11-13T12:50:33;6.97;;;3.72;;
25299;SDS011;13241;51.208;4.432;2022-11-13T12:53:26;7.20;;;4.15;;
25299;SDS011;13241;51.208;4.432;2022-11-13T12:56:34;5.90;;;4.05;;
25299;SDS011;13241;51.208;4.432;2022-11-13T13:23:52;4.22;;;2.75;;
25299;SDS011;13241;51.208;4.432;2022-11-13T13:26:44;4.93;;;3.33;;
25299;SDS011;13241;51.208;4.432;2022-11-13T13:29:31;5.25;;;3.20;;
25299;SDS011;13241;51.208;4.432;2022-11-13T13:32:22;8.18;;;3.58;;
25299;SDS011;13241;51.208;4.432;2022-11-13T13:35:23;6.90;;;3.05;;
25299;SDS011;13241;51.208;4.432;2022-11-13T13:38:17;6.57;;;3.58;;
25299;SDS011;13241;51.208;4.432;2022-11-13T13:41:19;6.47;;;3.53;;
25299;SDS011;13241;51.208;4.432;2022-11-13T13:47:20;4.47;;;3.05;;
25299;SDS011;13241;51.208;4.432;2022-11-13T13:50:16;6.25;;;3.88;;
25299;SDS011;13241;51.208;4.432;2022-11-13T13:53:05;8.75;;;4.32;;
25299;SDS011;13241;51.208;4.432;2022-11-13T13:55:53;11.02;;;3.50;;
25299;SDS011;13241;51.208;4.432;2022-11-13T13:58:40;6.82;;;4.57;;
25299;SDS011;13241;51.208;4.432;2022-11-13T14:01:27;6.88;;;4.15;;
25299;SDS011;13241;51.208;4.432;2022-11-13T14:04:18;5.57;;;4.03;;
25299;SDS011;13241;51.208;4.432;2022-11-13T14:07:16;9.13;;;4.07;;
25299;SDS011;13241;51.208;4.432;2022-11-13T14:10:15;5.47;;;3.28;;
25299;SDS011;13241;51.208;4.432;2022-11-13T14:13:03;7.32;;;3.60;;
25299;SDS011;13241;51.208;4.432;2022-11-13T14:15:58;4.88;;;3.50;;
25299;SDS011;13241;51.208;4.432;2022-11-13T14:18:47;9.25;;;3.97;;
25299;SDS011;13241;51.208;4.432;2022-11-13T14:21:33;6.10;;;3.65;;
25299;SDS011;13241;51.208;4.432;2022-11-13T14:24:36;5.70;;;4.00;;
25299;SDS011;13241;51.208;4.432;2022-11-13T14:27:31;5.72;;;3.85;;
25299;SDS011;13241;51.208;4.432;2022-11-13T14:30:27;12.18;;;5.10;;
25299;SDS011;13241;51.208;4.432;2022-11-13T14:33:15;6.55;;;4.13;;
25299;SDS011;13241;51.208;4.432;2022-11-13T14:36:05;8.18;;;4.55;;
25299;SDS011;13241;51.208;4.432;2022-11-13T14:38:50;8.43;;;4.82;;
25299;SDS011;13241;51.208;4.432;2022-11-13T14:41:44;7.65;;;4.40;;
25299;SDS011;13241;51.208;4.432;2022-11-13T14:44:33;6.90;;;3.85;;
25299;SDS011;13241;51.208;4.432;2022-11-13T14:50:26;20.38;;;6.60;;
25299;SDS011;13241;51.208;4.432;2022-11-13T14:56:17;11.52;;;4.40;;
25299;SDS011;13241;51.208;4.432;2022-11-13T14:59:07;8.70;;;4.90;;
25299;SDS011;13241;51.208;4.432;2022-11-13T15:01:54;8.15;;;4.78;;
25299;SDS011;13241;51.208;4.432;2022-11-13T15:04:41;8.02;;;4.38;;
25299;SDS011;13241;51.208;4.432;2022-11-13T15:07:27;11.38;;;4.38;;
25299;SDS011;13241;51.208;4.432;2022-11-13T15:10:16;6.28;;;4.32;;
25299;SDS011;13241;51.208;4.432;2022-11-13T15:13:10;8.15;;;4.68;;
25299;SDS011;13241;51.208;4.432;2022-11-13T15:15:57;9.60;;;5.60;;
25299;SDS011;13241;51.208;4.432;2022-11-13T15:18:45;13.30;;;5.20;;
25299;SDS011;13241;51.208;4.432;2022-11-13T15:21:35;8.75;;;5.65;;
25299;SDS011;13241;51.208;4.432;2022-11-13T15:24:21;9.05;;;5.03;;
25299;SDS011;13241;51.208;4.432;2022-11-13T15:27:16;9.02;;;5.15;;
25299;SDS011;13241;51.208;4.432;2022-11-13T15:30:02;9.05;;;5.45;;
25299;SDS011;13241;51.208;4.432;2022-11-13T15:32:48;8.30;;;5.15;;
25299;SDS011;13241;51.208;4.432;2022-11-13T15:35:37;9.45;;;5.15;;
25299;SDS011;13241;51.208;4.432;2022-11-13T15:38:22;12.13;;;5.75;;
25299;SDS011;13241;51.208;4.432;2022-11-13T15:41:12;11.55;;;6.18;;
25299;SDS011;13241;51.208;4.432;2022-11-13T15:44:00;14.05;;;6.22;;
25299;SDS011;13241;51.208;4.432;2022-11-13T15:46:48;12.48;;;5.90;;
25299;SDS011;13241;51.208;4.432;2022-11-13T15:49:34;11.65;;;5.60;;
25299;SDS011;13241;51.208;4.432;2022-11-13T15:52:19;8.60;;;5.55;;
25299;SDS011;13241;51.208;4.432;2022-11-13T15:55:09;16.40;;;6.60;;
25299;SDS011;13241;51.208;4.432;2022-11-13T15:58:04;14.98;;;5.88;;
25299;SDS011;13241;51.208;4.432;2022-11-13T16:00:50;13.32;;;6.55;;
25299;SDS011;13241;51.208;4.432;2022-11-13T16:03:35;10.75;;;5.70;;
25299;SDS011;13241;51.208;4.432;2022-11-13T16:06:24;11.45;;;6.43;;
25299;SDS011;13241;51.208;4.432;2022-11-13T16:09:11;12.27;;;5.80;;
25299;SDS011;13241;51.208;4.432;2022-11-13T16:11:57;11.77;;;6.70;;
25299;SDS011;13241;51.208;4.432;2022-11-13T16:14:45;12.18;;;5.88;;
25299;SDS011;13241;51.208;4.432;2022-11-13T16:17:31;13.73;;;6.63;;
25299;SDS011;13241;51.208;4.432;2022-11-13T16:20:22;16.60;;;7.07;;
25299;SDS011;13241;51.208;4.432;2022-11-13T16:23:10;14.18;;;7.78;;
25299;SDS011;13241;51.208;4.432;2022-11-13T16:26:00;16.35;;;7.88;;
25299;SDS011;13241;51.208;4.432;2022-11-13T16:28:48;12.00;;;6.85;;
25299;SDS011;13241;51.208;4.432;2022-11-13T16:31:56;23.90;;;8.70;;
25299;SDS011;13241;51.208;4.432;2022-11-13T16:34:41;28.98;;;11.68;;
25299;SDS011;13241;51.208;4.432;2022-11-13T16:37:27;22.45;;;10.55;;
25299;SDS011;13241;51.208;4.432;2022-11-13T16:40:20;20.80;;;9.48;;
25299;SDS011;13241;51.208;4.432;2022-11-13T16:43:07;24.48;;;10.30;;
25299;SDS011;13241;51.208;4.432;2022-11-13T16:45:54;24.42;;;10.10;;
25299;SDS011;13241;51.208;4.432;2022-11-13T16:48:39;21.15;;;10.20;;
25299;SDS011;13241;51.208;4.432;2022-11-13T16:51:25;19.95;;;9.48;;
25299;SDS011;13241;51.208;4.432;2022-11-13T16:54:11;19.42;;;9.23;;
25299;SDS011;13241;51.208;4.432;2022-11-13T16:56:57;16.35;;;8.30;;
25299;SDS011;13241;51.208;4.432;2022-11-13T17:10:56;22.13;;;10.80;;
25299;SDS011;13241;51.208;4.432;2022-11-13T17:13:50;17.15;;;10.07;;
25299;SDS011;13241;51.208;4.432;2022-11-13T17:16:40;19.50;;;10.10;;
25299;SDS011;13241;51.208;4.432;2022-11-13T17:19:25;21.52;;;11.52;;
25299;SDS011;13241;51.208;4.432;2022-11-13T17:22:12;18.70;;;9.50;;
25299;SDS011;13241;51.208;4.432;2022-11-13T17:24:58;23.17;;;9.85;;
25299;SDS011;13241;51.208;4.432;2022-11-13T17:27:43;19.25;;;10.02;;
25299;SDS011;13241;51.208;4.432;2022-11-13T17:30:29;20.70;;;10.35;;
25299;SDS011;13241;51.208;4.432;2022-11-13T17:33:15;23.23;;;10.75;;
25299;SDS011;13241;51.208;4.432;2022-11-13T17:36:00;21.02;;;10.57;;
25299;SDS011;13241;51.208;4.432;2022-11-13T17:38:47;22.52;;;11.15;;
25299;SDS011;13241;51.208;4.432;2022-11-13T17:41:33;17.27;;;9.52;;
25299;SDS011;13241;51.208;4.432;2022-11-13T17:44:19;18.95;;;10.38;;
25299;SDS011;13241;51.208;4.432;2022-11-13T17:47:04;24.70;;;11.23;;
25299;SDS011;13241;51.208;4.432;2022-11-13T17:49:53;20.30;;;10.52;;
25299;SDS011;13241;51.208;4.432;2022-11-13T17:52:40;23.33;;;12.13;;
25299;SDS011;13241;51.208;4.432;2022-11-13T17:55:25;18.42;;;9.85;;
25299;SDS011;13241;51.208;4.432;2022-11-13T17:58:11;19.23;;;11.10;;
25299;SDS011;13241;51.208;4.432;2022-11-13T18:01:03;25.13;;;10.82;;
25299;SDS011;13241;51.208;4.432;2022-11-13T18:06:42;16.95;;;9.00;;
25299;SDS011;13241;51.208;4.432;2022-11-13T18:09:27;17.90;;;10.68;;
25299;SDS011;13241;51.208;4.432;2022-11-13T18:12:13;16.73;;;9.23;;
25299;SDS011;13241;51.208;4.432;2022-11-13T18:14:58;16.55;;;9.27;;
25299;SDS011;13241;51.208;4.432;2022-11-13T18:17:44;16.58;;;8.65;;
25299;SDS011;13241;51.208;4.432;2022-11-13T18:20:29;15.70;;;8.90;;
25299;SDS011;13241;51.208;4.432;2022-11-13T18:23:15;17.23;;;9.43;;
25299;SDS011;13241;51.208;4.432;2022-11-13T18:26:08;16.50;;;9.88;;
25299;SDS011;13241;51.208;4.432;2022-11-13T18:28:55;17.77;;;8.85;;